Disclaimer

Please do not use the information listed here in-flight or in-navigation, as they are not provided to us by the airports but are provided by volunteers, so they might be outdated.

Search


Regions


Airport information page

Radio informations:
OTOPENI TWR - 120.9 MHz
OTOPENI GND - 121.7 MHz
OTOPENI ATIS - 118.5 MHz
BUCURESTI APP - 118.25 MHz

Airport informations:
Latitude: 44° 34' 19.78" N
Longitude: 026° 06' 07.84" E
Elevation: 314 feet - 96 meters
Operating hours: N/A
Operating agency: Military-civil joint use airport
Timezone: UTC+2(+3DT)
Fuel: N/A

Runway information:
08R/26L - 11484 x 148 feet< - >3500 x 45 meters
08L/26R - 11484 x 148 feet< - >3500 x 45 meters

Recent METARs:
LROP 211730Z 05018KT 8000 -RA BR BKN010 02/01 Q1020 R88/29//95 NOSIG
LROP 211800Z 05017KT 9999 -RA BKN009 OVC020 02/01 Q1020 WS RWYR08 R88/29//95 NOSIG
LROP 211830Z 05015KT 8000 -RA BKN011 BKN021 02/01 Q1020 WS R08R R88/29//95 NOSIG

Airport on the map: